LJLJ/LJU METAR and TAF weather

Enter ICAO airport designator
Station Type Date Time Source
LJLJ METAR 2019/09/21 21:30 UTC NOAA

LJLJ 212130Z VRB01KT CAVOK 06/05 Q1023 NOSIG


Station Type Date Time Source
LJLJ Decoded METAR 2019/09/21 21:30 UTC NOAA

Ljubljana / Brnik, Slovenia (LJLJ) 46-13N 014-29E 362M
Sep 21, 2019 - 05:30 PM EDT / 2019.09.21 2130 UTC
Wind: Variable at 1 MPH (1 KT):0
Visibility: greater than 7 mile(s):0
Temperature: 42 F (6 C)
Dew Point: 41 F (5 C)
Relative Humidity: 93%
Pressure (altimeter): 30.21 in. Hg (1023 hPa)
ob: LJLJ 212130Z VRB01KT CAVOK 06/05 Q1023 NOSIG
cycle: 21

Station Type Date Time Source
LJLJ TAF 2019/09/21 21:07 UTC NOAA

TAF LJLJ 212000Z 2121/2221 30003KT CAVOK
BECMG 2208/2210 13005KT
BECMG 2210/2212 25005KT
TEMPO 2210/2217 25010KT
BECMG 2212/2215 SCT040 BKN250
TEMPO 2212/2217 BKN040
BECMG 2217/2219 28004KT BKN040 OVC060 PROB30
TEMPO 2218/2221 SHRA BKN035TCU

Example: see airport list